createdAt,value
2018-10-18T00:00:45.605Z,44.83
2018-10-18T00:03:15.008Z,43.53
2018-10-18T00:05:44.523Z,45.77
2018-10-18T00:08:13.289Z,45.00
2018-10-18T00:10:45.840Z,43.87
2018-10-18T00:13:15.324Z,42.37
2018-10-18T00:15:48.752Z,44.00
2018-10-18T00:18:18.021Z,46.30
2018-10-18T00:20:52.724Z,43.03
2018-10-18T00:23:21.921Z,43.10
2018-10-18T00:25:55.440Z,43.53
2018-10-18T00:28:24.650Z,46.23
2018-10-18T00:30:58.293Z,43.83
2018-10-18T00:33:27.002Z,43.13
2018-10-18T00:36:00.976Z,42.17
2018-10-18T00:38:30.511Z,43.83
2018-10-18T00:41:03.457Z,44.30
2018-10-18T00:43:32.702Z,42.97
2018-10-18T00:46:06.216Z,43.97
2018-10-18T00:48:35.737Z,46.33
2018-10-18T00:51:09.865Z,44.67
2018-10-18T00:53:39.329Z,44.23
2018-10-18T00:56:13.320Z,45.47
2018-10-18T00:58:42.059Z,46.27
2018-10-18T01:01:22.949Z,47.13
2018-10-18T01:03:51.658Z,44.00
2018-10-18T01:06:21.128Z,45.97
2018-10-18T01:08:50.335Z,46.33
2018-10-18T01:11:21.628Z,45.17
2018-10-18T01:13:51.117Z,44.63
2018-10-18T01:16:24.017Z,44.53
2018-10-18T01:18:53.213Z,44.17
2018-10-18T01:21:26.005Z,45.73
2018-10-18T01:23:54.727Z,45.73
2018-10-18T01:26:28.016Z,46.37
2018-10-18T01:28:57.508Z,46.83
2018-10-18T01:31:29.340Z,44.97
2018-10-18T01:33:58.501Z,44.37
2018-10-18T01:36:33.587Z,46.40
2018-10-18T01:39:02.329Z,46.43
2018-10-18T01:41:35.743Z,44.60
2018-10-18T01:44:04.478Z,45.40
2018-10-18T01:46:46.250Z,44.57
2018-10-18T01:49:16.659Z,44.43
2018-10-18T01:51:45.881Z,46.50
2018-10-18T01:54:14.658Z,44.27
2018-10-18T01:56:45.302Z,45.67
2018-10-18T01:59:14.517Z,45.43
2018-10-18T02:01:48.305Z,44.40
2018-10-18T02:04:17.797Z,43.20
2018-10-18T02:06:50.785Z,43.83
2018-10-18T02:09:19.508Z,40.07
2018-10-18T02:11:54.237Z,44.80
2018-10-18T02:14:23.448Z,42.77
2018-10-18T02:16:56.773Z,42.33
2018-10-18T02:19:26.342Z,42.60
2018-10-18T02:21:58.626Z,41.47
2018-10-18T02:24:27.904Z,41.10
2018-10-18T02:27:01.372Z,40.73
2018-10-18T02:29:30.572Z,39.73
2018-10-18T02:32:04.432Z,39.07
2018-10-18T02:34:33.424Z,38.40
2018-10-18T02:37:07.526Z,39.50
2018-10-18T02:39:36.233Z,39.93
2018-10-18T02:44:38.712Z,36.93
2018-10-18T02:47:12.247Z,37.93
2018-10-18T02:49:40.972Z,36.70
2018-10-18T02:54:45.362Z,37.23
2018-10-18T02:57:20.221Z,37.13
2018-10-18T02:59:49.482Z,35.53
2018-10-18T03:02:22.460Z,37.87
2018-10-18T03:04:51.626Z,37.03
2018-10-18T03:07:24.127Z,36.73
2018-10-18T03:09:53.305Z,37.17
2018-10-18T03:12:26.693Z,37.97
2018-10-18T03:14:55.664Z,37.33
2018-10-18T03:17:37.353Z,38.10
2018-10-18T03:20:07.029Z,36.53
2018-10-18T03:22:36.323Z,36.47
2018-10-18T03:25:06.122Z,36.33
2018-10-18T03:27:35.949Z,37.50
2018-10-18T03:30:05.848Z,35.97
2018-10-18T03:32:38.086Z,35.90
2018-10-18T03:35:08.440Z,36.37
2018-10-18T03:37:40.541Z,35.90
2018-10-18T03:40:10.364Z,36.20
2018-10-18T03:42:43.420Z,34.77
2018-10-18T03:45:12.603Z,34.97
2018-10-18T03:47:55.333Z,35.10
2018-10-18T03:50:24.356Z,34.97
2018-10-18T03:52:53.554Z,34.50
2018-10-18T03:55:22.257Z,36.80
2018-10-18T03:57:51.901Z,35.70
2018-10-18T04:00:21.182Z,36.50
2018-10-18T04:02:54.283Z,38.73
2018-10-18T04:05:23.826Z,38.70
2018-10-18T04:08:05.607Z,39.73
2018-10-18T04:10:34.608Z,40.50
2018-10-18T04:13:03.360Z,38.33
2018-10-18T04:15:32.648Z,40.00
2018-10-18T04:18:02.683Z,40.13
2018-10-18T04:20:31.368Z,39.00
2018-10-18T04:23:05.669Z,38.70
2018-10-18T04:25:35.301Z,40.53
2018-10-18T04:28:09.982Z,38.57
2018-10-18T04:30:39.173Z,38.63
2018-10-18T04:33:20.896Z,38.40
2018-10-18T04:35:49.909Z,39.03
2018-10-18T04:38:19.121Z,36.03
2018-10-18T04:40:48.324Z,37.77
2018-10-18T04:43:17.452Z,38.47
2018-10-18T04:45:46.197Z,39.33
2018-10-18T04:48:28.746Z,37.70
2018-10-18T04:50:58.279Z,38.00
2018-10-18T04:53:27.068Z,36.10
2018-10-18T04:55:56.309Z,36.77
2018-10-18T04:58:25.782Z,38.47
2018-10-18T05:00:55.033Z,37.37
2018-10-18T05:03:27.523Z,38.33
2018-10-18T05:06:01.252Z,36.77
2018-10-18T05:08:30.705Z,38.90
2018-10-18T05:10:59.468Z,36.30
2018-10-18T05:13:31.789Z,37.87
2018-10-18T05:16:00.854Z,37.13
2018-10-18T05:18:34.068Z,35.97
2018-10-18T05:21:03.281Z,34.10
2018-10-18T05:23:36.101Z,35.13
2018-10-18T05:26:05.557Z,36.07
2018-10-18T05:28:37.917Z,34.40
2018-10-18T05:31:07.542Z,36.83
2018-10-18T05:33:49.597Z,34.77
2018-10-18T05:36:19.616Z,33.37
2018-10-18T05:38:48.319Z,34.93
2018-10-18T05:41:17.016Z,33.83
2018-10-18T05:43:48.329Z,34.77
2018-10-18T05:46:17.561Z,35.30
2018-10-18T05:48:51.048Z,33.77
2018-10-18T05:51:20.520Z,33.63
2018-10-18T05:54:02.910Z,33.57
2018-10-18T05:56:31.780Z,33.70
2018-10-18T05:59:01.025Z,34.17
2018-10-18T06:01:30.325Z,35.60
2018-10-18T06:04:00.557Z,34.33
2018-10-18T06:06:29.289Z,33.30
2018-10-18T06:09:03.397Z,32.53
2018-10-18T06:11:33.269Z,32.23
2018-10-18T06:14:06.192Z,34.43
2018-10-18T06:16:35.721Z,33.63
2018-10-18T06:19:08.791Z,32.23
2018-10-18T06:21:38.029Z,33.37
2018-10-18T06:24:11.978Z,32.17
2018-10-18T06:26:40.663Z,34.43
2018-10-18T06:29:14.755Z,33.97
2018-10-18T06:31:43.480Z,31.73
2018-10-18T06:34:16.406Z,30.87
2018-10-18T06:36:45.381Z,32.50
2018-10-18T06:39:19.318Z,33.60
2018-10-18T06:41:48.460Z,33.60
2018-10-18T06:44:29.569Z,31.27
2018-10-18T06:46:59.182Z,32.87
2018-10-18T06:49:28.414Z,31.90
2018-10-18T06:51:57.444Z,31.67
2018-10-18T06:54:27.008Z,30.27
2018-10-18T06:56:55.744Z,30.03
2018-10-18T06:59:28.029Z,30.43
2018-10-18T07:01:57.330Z,32.87
2018-10-18T07:04:30.432Z,31.03
2018-10-18T07:06:59.966Z,32.40
2018-10-18T07:09:42.250Z,30.53
2018-10-18T07:12:11.845Z,31.47
2018-10-18T07:14:40.516Z,30.70
2018-10-18T07:17:09.251Z,31.40
2018-10-18T07:19:38.529Z,29.90
2018-10-18T07:22:07.239Z,30.20
2018-10-18T07:24:49.270Z,31.73
2018-10-18T07:27:18.479Z,28.47
2018-10-18T07:29:47.978Z,30.27
2018-10-18T07:32:16.672Z,30.37
2018-10-18T07:34:46.141Z,28.00
2018-10-18T07:37:15.658Z,29.33
2018-10-18T07:42:24.625Z,30.07
2018-10-18T07:44:53.969Z,28.53
2018-10-18T07:47:22.696Z,29.87
2018-10-18T07:49:54.671Z,40.90
2018-10-18T07:52:23.394Z,31.83
2018-10-18T07:54:57.439Z,33.07
2018-10-18T07:57:27.049Z,29.77
2018-10-18T08:00:00.817Z,31.10
2018-10-18T08:02:29.934Z,36.10
2018-10-18T08:05:04.406Z,27.63
2018-10-18T08:07:33.626Z,29.30
2018-10-18T08:10:08.020Z,29.30
2018-10-18T08:12:37.196Z,29.50
2018-10-18T08:15:13.382Z,30.33
2018-10-18T08:17:42.600Z,32.00
2018-10-18T08:20:14.486Z,28.60
2018-10-18T08:22:43.669Z,29.80
2018-10-18T08:25:15.990Z,30.93
2018-10-18T08:27:44.681Z,31.03
2018-10-18T08:30:17.822Z,33.67
2018-10-18T08:32:47.515Z,30.03
2018-10-18T08:35:20.764Z,32.13
2018-10-18T08:37:50.537Z,32.70
2018-10-18T08:40:22.868Z,31.10
2018-10-18T08:42:52.290Z,32.40
2018-10-18T08:45:24.510Z,33.33
2018-10-18T08:47:53.212Z,30.07
2018-10-18T08:50:27.129Z,31.23
2018-10-18T08:52:56.624Z,29.60
2018-10-18T08:55:29.299Z,31.00
2018-10-18T08:57:58.053Z,32.10
2018-10-18T09:00:39.885Z,32.83
2018-10-18T09:03:09.076Z,31.73
2018-10-18T09:05:38.309Z,32.07
2018-10-18T09:08:07.321Z,30.87
2018-10-18T09:10:37.475Z,31.40
2018-10-18T09:13:06.716Z,30.03
2018-10-18T09:15:39.672Z,30.77
2018-10-18T09:18:08.393Z,31.80
2018-10-18T09:20:44.919Z,32.03
2018-10-18T09:23:15.410Z,32.37
2018-10-18T09:25:46.142Z,29.33
2018-10-18T09:28:15.398Z,31.93
2018-10-18T09:30:47.941Z,29.50
2018-10-18T09:33:17.587Z,30.80
2018-10-18T09:35:51.244Z,32.87
2018-10-18T09:38:20.497Z,33.10
2018-10-18T09:40:55.067Z,31.77
2018-10-18T09:43:23.769Z,30.80
2018-10-18T09:45:56.978Z,30.23
2018-10-18T09:48:26.195Z,27.00
2018-10-18T09:50:59.869Z,28.43
2018-10-18T09:53:29.491Z,27.80
2018-10-18T09:56:11.335Z,25.93
2018-10-18T09:58:40.513Z,23.93
2018-10-18T10:01:14.584Z,25.63
2018-10-18T10:03:44.085Z,24.40
2018-10-18T10:06:13.178Z,24.43
2018-10-18T10:11:21.088Z,23.17
2018-10-18T10:13:50.413Z,24.43
2018-10-18T10:16:19.628Z,23.43
2018-10-18T10:18:49.357Z,23.30
2018-10-18T10:21:18.619Z,23.30
2018-10-18T10:23:47.326Z,22.67
2018-10-18T10:26:21.269Z,23.60
2018-10-18T10:28:50.487Z,26.57
2018-10-18T10:31:22.351Z,28.77
2018-10-18T10:33:51.544Z,28.33
2018-10-18T10:36:25.454Z,26.60
2018-10-18T10:38:54.547Z,27.60
2018-10-18T10:41:27.038Z,26.63
2018-10-18T10:43:56.295Z,26.13
2018-10-18T10:46:29.227Z,28.27
2018-10-18T10:48:58.447Z,27.23
2018-10-18T10:51:32.475Z,26.73
2018-10-18T10:54:02.194Z,30.10
2018-10-18T10:56:35.417Z,31.20
2018-10-18T10:59:18.708Z,33.00
2018-10-18T11:01:48.038Z,34.27
2018-10-18T11:04:17.833Z,31.00
2018-10-18T11:09:15.656Z,30.53
2018-10-18T11:11:44.635Z,29.93
2018-10-18T11:14:14.042Z,30.27
2018-10-18T11:16:45.802Z,30.00
2018-10-18T11:19:14.863Z,28.30
2018-10-18T11:21:46.662Z,28.87
2018-10-18T11:24:15.980Z,28.70
2018-10-18T11:26:49.432Z,28.33
2018-10-18T11:29:19.100Z,32.10
2018-10-18T11:32:01.464Z,27.97
2018-10-18T11:34:31.309Z,29.73
2018-10-18T11:37:00.502Z,28.70
2018-10-18T11:39:29.700Z,30.13
2018-10-18T11:42:00.106Z,29.90
2018-10-18T11:44:34.871Z,31.00
2018-10-18T11:47:04.153Z,31.03
2018-10-18T11:49:33.648Z,32.27
2018-10-18T11:52:05.531Z,32.90
2018-10-18T11:54:34.797Z,29.97
2018-10-18T11:57:09.277Z,29.83
2018-10-18T11:59:37.981Z,29.30
2018-10-18T12:02:13.235Z,28.83
2018-10-18T12:04:42.789Z,30.33
2018-10-18T12:07:13.910Z,28.67
2018-10-18T12:09:42.649Z,28.47
2018-10-18T12:12:17.906Z,30.33
2018-10-18T12:14:47.213Z,29.90
2018-10-18T12:17:19.765Z,29.00
2018-10-18T12:19:49.917Z,29.33
2018-10-18T12:22:22.141Z,29.33
2018-10-18T12:24:50.876Z,30.13
2018-10-18T12:27:24.385Z,28.07
2018-10-18T12:29:54.111Z,28.80
2018-10-18T12:32:25.900Z,28.17
2018-10-18T12:34:55.452Z,27.63
2018-10-18T12:37:27.990Z,26.93
2018-10-18T12:39:57.249Z,27.43
2018-10-18T12:42:32.010Z,25.13
2018-10-18T12:45:01.237Z,26.20
2018-10-18T12:47:33.853Z,22.77
2018-10-18T12:50:04.238Z,21.60
2018-10-18T12:52:37.189Z,21.13
2018-10-18T12:55:06.927Z,17.47
2018-10-18T12:57:39.204Z,16.70
2018-10-18T13:00:08.841Z,16.37
2018-10-18T13:02:41.866Z,15.67
2018-10-18T13:05:11.745Z,13.57
2018-10-18T13:07:43.556Z,15.50
2018-10-18T13:10:13.577Z,14.40
2018-10-18T13:12:46.330Z,15.90
2018-10-18T13:15:16.022Z,16.60
2018-10-18T13:17:49.945Z,15.97
2018-10-18T13:20:18.840Z,15.10
2018-10-18T13:22:51.684Z,15.07
2018-10-18T13:25:21.339Z,13.77
2018-10-18T13:27:55.203Z,12.90
2018-10-18T13:30:24.418Z,13.17
2018-10-18T13:32:58.279Z,12.57
2018-10-18T13:35:28.077Z,11.63
2018-10-18T13:38:00.703Z,10.53
2018-10-18T13:40:29.496Z,10.90
2018-10-18T13:43:03.151Z,9.27
2018-10-18T13:45:32.381Z,9.10
2018-10-18T13:48:08.135Z,7.20
2018-10-18T13:50:36.835Z,7.40
2018-10-18T13:53:11.642Z,5.57
2018-10-18T13:55:41.809Z,4.40
2018-10-18T13:58:14.683Z,4.50
2018-10-18T14:00:43.893Z,4.73
2018-10-18T14:03:16.034Z,4.57
2018-10-18T14:05:45.415Z,4.07
2018-10-18T14:08:18.355Z,3.90
2018-10-18T14:10:48.033Z,3.63
2018-10-18T14:13:21.633Z,3.87
2018-10-18T14:15:50.882Z,3.90
2018-10-18T14:18:24.645Z,3.63
2018-10-18T14:20:54.328Z,2.87
2018-10-18T14:23:26.861Z,2.90
2018-10-18T14:25:57.027Z,3.10
2018-10-18T14:28:27.729Z,2.97
2018-10-18T14:31:00.231Z,2.97
2018-10-18T14:33:42.250Z,3.30
2018-10-18T14:36:12.107Z,2.97
2018-10-18T14:38:41.620Z,3.30
2018-10-18T14:41:10.634Z,2.50
2018-10-18T14:43:40.187Z,2.80
2018-10-18T14:46:09.842Z,2.70
2018-10-18T14:48:39.809Z,2.97
2018-10-18T14:51:08.958Z,2.70
2018-10-18T14:53:41.429Z,2.77
2018-10-18T14:56:10.263Z,2.50
2018-10-18T14:58:43.374Z,2.77
2018-10-18T15:01:13.432Z,3.10
2018-10-18T15:03:46.017Z,3.37
2018-10-18T15:06:15.877Z,2.70
2018-10-18T15:08:48.457Z,2.60
2018-10-18T15:11:17.854Z,2.57
2018-10-18T15:13:52.045Z,2.67
2018-10-18T15:16:21.379Z,3.60
2018-10-18T15:18:55.024Z,3.07
2018-10-18T15:21:23.832Z,3.20
2018-10-18T15:23:58.773Z,5.37
2018-10-18T15:26:27.734Z,5.73
2018-10-18T15:29:02.168Z,6.20
2018-10-18T15:31:31.748Z,6.77
2018-10-18T15:34:04.355Z,7.87
2018-10-18T15:36:33.584Z,8.17
2018-10-18T15:39:07.879Z,9.67
2018-10-18T15:41:37.746Z,10.97
2018-10-18T15:44:12.568Z,10.67
2018-10-18T15:46:41.294Z,11.57
2018-10-18T15:49:13.584Z,10.93
2018-10-18T15:51:43.087Z,12.67
2018-10-18T15:54:16.560Z,11.37
2018-10-18T15:56:45.199Z,11.47
2018-10-18T15:59:19.256Z,12.50
2018-10-18T16:01:48.902Z,11.93
2018-10-18T16:04:20.791Z,11.77
2018-10-18T16:06:50.304Z,12.10
2018-10-18T16:09:23.452Z,11.50
2018-10-18T16:11:52.717Z,11.93
2018-10-18T16:14:27.240Z,11.03
2018-10-18T16:16:56.071Z,11.17
2018-10-18T16:19:29.979Z,10.37
2018-10-18T16:21:59.144Z,9.27
2018-10-18T16:24:31.958Z,10.67
2018-10-18T16:27:00.785Z,9.90
2018-10-18T16:29:34.552Z,9.60
2018-10-18T16:32:03.339Z,10.13
2018-10-18T16:34:37.381Z,9.63
2018-10-18T16:37:07.152Z,9.30
2018-10-18T16:39:39.557Z,7.40
2018-10-18T16:42:08.267Z,8.17
2018-10-18T16:44:42.655Z,8.67
2018-10-18T16:47:12.177Z,6.70
2018-10-18T16:49:45.778Z,6.80
2018-10-18T16:52:15.837Z,7.60
2018-10-18T16:54:47.575Z,7.90
2018-10-18T16:57:16.358Z,8.03
2018-10-18T16:59:50.920Z,7.53
2018-10-18T17:02:20.158Z,7.80
2018-10-18T17:04:53.843Z,7.30
2018-10-18T17:07:22.561Z,7.00
2018-10-18T17:09:56.227Z,7.20
2018-10-18T17:12:25.757Z,6.60
2018-10-18T17:14:58.925Z,6.43
2018-10-18T17:17:28.193Z,6.63
2018-10-18T17:20:02.898Z,5.90
2018-10-18T17:22:31.732Z,5.40
2018-10-18T17:25:05.525Z,5.47
2018-10-18T17:27:35.300Z,5.90
2018-10-18T17:30:09.205Z,5.67
2018-10-18T17:32:38.183Z,6.30
2018-10-18T17:35:13.807Z,7.60
2018-10-18T17:37:42.543Z,7.10
2018-10-18T17:40:14.286Z,7.23
2018-10-18T17:42:43.973Z,8.20
2018-10-18T17:45:17.174Z,7.63
2018-10-18T17:47:46.373Z,7.70
2018-10-18T17:50:19.855Z,8.60
2018-10-18T17:52:49.102Z,8.80
2018-10-18T17:55:21.458Z,10.60
2018-10-18T17:57:51.069Z,8.97
2018-10-18T18:00:24.141Z,9.00
2018-10-18T18:02:52.832Z,9.23
2018-10-18T18:05:27.434Z,9.90
2018-10-18T18:07:56.146Z,9.70
2018-10-18T18:10:29.255Z,10.77
2018-10-18T18:12:58.317Z,11.67
2018-10-18T18:15:30.853Z,11.77
2018-10-18T18:18:00.799Z,11.67
2018-10-18T18:20:33.454Z,10.63
2018-10-18T18:23:03.100Z,10.70
2018-10-18T18:25:34.725Z,11.60
2018-10-18T18:28:03.732Z,11.93
2018-10-18T18:30:37.992Z,10.70
2018-10-18T18:33:07.356Z,10.23
2018-10-18T18:35:40.334Z,11.00
2018-10-18T18:38:09.825Z,11.70
2018-10-18T18:40:43.976Z,10.83
2018-10-18T18:43:14.189Z,10.47
2018-10-18T18:45:46.745Z,10.83
2018-10-18T18:48:15.931Z,10.57
2018-10-18T18:50:49.150Z,10.37
2018-10-18T18:53:19.475Z,10.30
2018-10-18T18:55:54.097Z,10.63
2018-10-18T18:58:23.323Z,10.30
2018-10-18T19:00:54.008Z,9.90
2018-10-18T19:03:23.564Z,11.40
2018-10-18T19:05:56.640Z,10.80
2018-10-18T19:08:26.736Z,10.97
2018-10-18T19:10:59.600Z,10.67
2018-10-18T19:13:29.152Z,11.70
2018-10-18T19:16:04.565Z,12.40
2018-10-18T19:18:33.779Z,12.17
2018-10-18T19:21:07.555Z,11.30
2018-10-18T19:23:36.716Z,12.00
2018-10-18T19:26:12.185Z,12.17
2018-10-18T19:28:42.004Z,12.60
2018-10-18T19:33:51.257Z,13.07
2018-10-18T19:36:22.006Z,14.00
2018-10-18T19:38:51.554Z,14.07
2018-10-18T19:41:21.724Z,12.50
2018-10-18T19:43:51.337Z,12.07
2018-10-18T19:46:20.612Z,13.67
2018-10-18T19:48:49.873Z,13.53
2018-10-18T19:51:23.494Z,13.13
2018-10-18T19:53:52.552Z,13.30
2018-10-18T19:56:24.805Z,14.67
2018-10-18T19:58:54.215Z,14.27
2018-10-18T20:01:28.941Z,13.67
2018-10-18T20:03:58.241Z,14.57
2018-10-18T20:06:30.552Z,15.43
2018-10-18T20:09:00.202Z,15.57
2018-10-18T20:11:32.252Z,15.00
2018-10-18T20:14:01.485Z,16.23
2018-10-18T20:16:34.295Z,15.90
2018-10-18T20:19:03.625Z,15.97
2018-10-18T20:24:12.785Z,16.60
2018-10-18T20:26:42.044Z,16.20
2018-10-18T20:29:11.146Z,16.70
2018-10-18T20:31:42.529Z,16.67
2018-10-18T20:34:11.746Z,16.23
2018-10-18T20:36:45.686Z,16.17
2018-10-18T20:39:14.548Z,17.13
2018-10-18T20:41:47.608Z,16.47
2018-10-18T20:44:16.616Z,17.33
2018-10-18T20:46:50.439Z,18.63
2018-10-18T20:49:19.804Z,17.57
2018-10-18T20:51:52.623Z,17.60
2018-10-18T20:54:21.821Z,17.87
2018-10-18T20:56:55.109Z,17.90
2018-10-18T20:59:24.582Z,18.17
2018-10-18T21:01:58.652Z,18.87
2018-10-18T21:04:27.838Z,21.00
2018-10-18T21:07:01.854Z,19.10
2018-10-18T21:09:31.065Z,20.17
2018-10-18T21:12:05.361Z,19.93
2018-10-18T21:14:34.390Z,21.40
2018-10-18T21:17:09.051Z,19.73
2018-10-18T21:19:38.198Z,21.87
2018-10-18T21:22:19.054Z,21.77
2018-10-18T21:24:48.501Z,22.67
2018-10-18T21:27:17.868Z,23.17
2018-10-18T21:29:47.597Z,23.50
2018-10-18T21:32:16.625Z,22.87
2018-10-18T21:34:46.161Z,25.20
2018-10-18T21:37:18.696Z,23.07
2018-10-18T21:39:47.900Z,24.40
2018-10-18T21:42:21.897Z,23.90
2018-10-18T21:44:51.552Z,23.80
2018-10-18T21:47:24.531Z,24.23
2018-10-18T21:49:53.707Z,24.50
2018-10-18T21:52:27.317Z,23.43
2018-10-18T21:54:56.476Z,24.17
2018-10-18T21:57:29.012Z,23.20
2018-10-18T21:59:58.465Z,24.40
2018-10-18T22:02:31.736Z,24.73
2018-10-18T22:05:00.932Z,24.17
2018-10-18T22:07:32.726Z,24.97
2018-10-18T22:10:01.411Z,26.67
2018-10-18T22:12:35.461Z,25.43
2018-10-18T22:15:06.026Z,26.27
2018-10-18T22:17:40.846Z,28.17
2018-10-18T22:20:10.451Z,26.63
2018-10-18T22:25:18.579Z,26.07
2018-10-18T22:27:48.021Z,26.93
2018-10-18T22:30:17.784Z,26.63
2018-10-18T22:32:47.071Z,25.93
2018-10-18T22:35:16.321Z,27.20
2018-10-18T22:37:50.408Z,27.97
2018-10-18T22:40:19.830Z,26.23
2018-10-18T22:42:52.559Z,27.30
2018-10-18T22:45:21.792Z,26.83
2018-10-18T22:47:55.327Z,27.03
2018-10-18T22:50:24.833Z,25.90
2018-10-18T22:53:06.514Z,28.07
2018-10-18T22:55:38.340Z,28.20
2018-10-18T22:58:07.051Z,26.10
2018-10-18T23:00:36.245Z,27.70
2018-10-18T23:03:05.852Z,26.63
2018-10-18T23:05:35.900Z,28.00
2018-10-18T23:08:08.273Z,26.70
2018-10-18T23:10:37.276Z,25.63
2018-10-18T23:13:13.393Z,28.27
2018-10-18T23:15:42.088Z,26.83
2018-10-18T23:18:15.092Z,26.83
2018-10-18T23:20:43.791Z,25.70
2018-10-18T23:23:17.850Z,24.57
2018-10-18T23:25:47.140Z,28.53
2018-10-18T23:28:18.160Z,26.33
2018-10-18T23:30:47.364Z,27.30
2018-10-18T23:33:22.796Z,25.10
2018-10-18T23:35:52.441Z,25.27
2018-10-18T23:38:23.962Z,25.37
2018-10-18T23:40:53.134Z,26.37
2018-10-18T23:43:25.752Z,25.90
2018-10-18T23:45:55.366Z,25.23
2018-10-18T23:48:27.911Z,24.27
2018-10-18T23:50:57.157Z,25.63
2018-10-18T23:53:38.310Z,26.20
2018-10-18T23:56:06.999Z,24.63
2018-10-18T23:58:35.964Z,26.27
